615  
NZUS99 KBOU 290547  
SYNBOU  
 
HOT-AIR BALLOON FORECAST FOR COLORADO  
NATIONAL WEATHER SERVICE DENVER/BOULDER, COLORADO  
2345 MDT SUNDAY, MAY 28, 2017  
 
* * * * * NORTHEAST COLORADO * * * * *  
 
METAR KFNL 290456Z AUTO 00000KT 10SM OVC095 13/08 A3026 RMK AO2 LTG DSNT  
N SLP202 T01280083  
METAR KFNL 290356Z AUTO 26009KT 10SM OVC095 13/08 A3024 RMK AO2 WSHFT  
0300 RAB0257E29 SLP201 P0000 T01330078  
SPECI KFNL 290320Z AUTO 06008G14KT 10SM -RA BKN065 OVC080 15/05 A3022  
RMK AO2 WSHFT 0300 RAB0257 P0000  
 
METAR KGXY 290456Z AUTO 00000KT 10SM BKN095 13/07 A3025 RMK AO2 LTG DSNT  
NW SLP223 T01280072  
METAR KGXY 290356Z AUTO 05005KT 10SM SCT090 14/07 A3024 RMK AO2 LTG DSNT  
S SLP221 T01390072  
METAR KGXY 290256Z AUTO 07005KT 10SM SCT110 14/07 A3022 RMK AO2 SLP218  
T01390067 53015  
 
METAR KLMO 290535Z AUTO 34003KT 7SM BKN100 BKN120 12/08 A3028 RMK AO2  
T01220080  
METAR KLMO 290515Z AUTO 20003KT 7SM SCT100 SCT120 12/08 A3027 RMK AO2  
T01190077  
METAR KLMO 290455Z AUTO 00000KT 7SM BKN120 12/08 A3027 RMK AO2  
T01150080  
 
METAR KBDU 290535Z AUTO 24003KT 10SM BKN110 13/04 A3026 RMK AO2  
METAR KBDU 290515Z AUTO 23006KT 10SM SCT120 13/05 A3026 RMK AO2  
METAR KBDU 290455Z AUTO 23004KT 10SM CLR 13/05 A3026 RMK AO2  
 
METAR KEIK 290535Z AUTO 21003KT 10SM OVC100 12/07 A3026 RMK AO2  
T01200069  
METAR KEIK 290515Z AUTO 00000KT 10SM BKN110 12/07 A3026 RMK AO2  
T01150072  
METAR KEIK 290455Z AUTO 19004KT 10SM SCT100 11/07 A3026 RMK AO2  
T01080071  
 
KBJC 290542Z 2906/3006 VRB05KT P6SM SCT080 BKN130  
FM290900 02007KT P6SM VCSH SCT060 BKN130  
FM291100 VRB05KT P6SM FEW070 SCT120  
FM291700 08006KT P6SM SCT060 BKN100  
TEMPO 2920/2924 VRB15G30KT -TSRA BKN050CB  
FM300000 11007KT P6SM VCSH SCT070 BKN100  
FM300300 24005KT P6SM SCT080 BKN120=  
METAR KBJC 290534Z AUTO 23004KT 10SM CLR 10/06 A3028 RMK AO2  
METAR KBJC 290512Z AUTO 23004KT 10SM CLR 09/06 A3028 RMK AO2  
METAR KBJC 290347Z 03007KT 20SM VCSH SCT080 BKN100 13/05 A3028 RMK  
LTGICCG DSNT NE LAST WX  
 
KDEN 290542Z 2906/3012 15007KT P6SM VCSH SCT080 BKN220  
FM290800 36010KT P6SM VCSH SCT060 BKN140  
FM291100 VRB05KT P6SM SCT070 BKN120  
FM291700 08008KT P6SM SCT060 BKN100  
TEMPO 2920/2924 VRB15G30KT -TSRA BKN050CB  
FM300000 10009KT P6SM VCSH SCT070 BKN100  
FM300300 14007KT P6SM SCT080 BKN120  
FM300600 19006KT P6SM FEW080 SCT140=  
METAR KDEN 290453Z 15008KT 10SM FEW080 SCT180 BKN200 10/07 A3026 RMK AO2  
LTG DSNT NE SLP198 RAB00 TSE25 P0006 T01000067 $  
SPECI KDEN 290427Z 06014KT 10SM SCT055 SCT080 BKN200 11/06 A3026 RMK AO2  
RAB00 TSE25 TS DSIPT P0006 T01110061 $  
SPECI KDEN 290411Z 05010KT 6SM VCTS RA FEW055 BKN085CB BKN200 11/07  
A3027 RMK AO2 RAB00 OCNL LTGICCG VC E TS VC E MOV SE P0006  
T01110067  
 
METAR KFTG 290535Z AUTO 12009KT 10SM SCT085 SCT100 11/07 A3028 RMK  
AO2  
METAR KFTG 290515Z AUTO 12008KT 10SM CLR 11/07 A3027 RMK AO2 LTG DSNT  
SE  
METAR KFTG 290247Z 02012KT 10SM SCT120 15/07 A3023  
 
KBKF 290508Z 2905/3007 12009KT 9999 FEW150 QNH3019INS  
BECMG 2917/2918 06012KT 9999 VCTS SCT080CB QNH3020INS  
TEMPO 2921/2924 06015G25KT 8000 -TSRA BKN050CB  
BECMG 3000/3001 12009KT 9999 NSW FEW100 SCT150 QNH3023INS  
TX21/2921Z TN08/2911Z  
METAR KBKF 290458Z 08006KT 10SM FEW100 SCT140 SCT220 11/06 A3029 RMK  
AO2A SLP210 T01080058  
METAR KBKF 290358Z 05005KT 10SM SCT100 BKN140 BKN220 12/06 A3027 RMK  
AO2A LTG DSNT N SLP203 T01170055  
METAR KBKF 290258Z 13006KT 10SM SCT100 14/03 A3023 RMK AO2A SLP189  
T01400033 53005  
 
KAPA 290542Z 2906/3006 12006KT P6SM SCT080 BKN120  
FM290900 01009KT P6SM SCT060 BKN140  
FM291100 VRB05KT P6SM SCT070 BKN120  
FM291700 08008KT P6SM SCT060 BKN100  
TEMPO 2920/2924 VRB15G30KT -TSRA BKN050CB  
FM300000 12009KT P6SM VCSH SCT070 BKN100  
FM300300 24005KT P6SM SCT080 BKN120=  
METAR KAPA 290453Z 10004KT 10SM SCT080 BKN120 12/06 A3029 RMK AO2 SLP217  
T01170056  
METAR KAPA 290353Z COR 06011KT 10SM BKN090 BKN110 13/04 A3027 RMK AO2  
LTG DSNT N AND NE SLP209 OCNL LTGICCG DSNT N-NE CB DSNT N-NE  
MOV SE T01330044  
METAR KAPA 290353Z 06011KT 10SM BKN090 BKN110 13/04 A3027 RMK AO2 LTG  
DSNT N AND NE SLP209 OCNL LTGICCG DSNT N CB DSNT N MOV SE  
T01330044  
 
METAR KMNH 290533Z AUTO 08004KT 10SM BKN080 OVC100 07/03 A3035 RMK  
AO2  
METAR KMNH 290514Z AUTO 07005KT 10SM SCT080 OVC110 08/03 A3035 RMK  
AO2  
METAR KMNH 290454Z AUTO 07006KT 10SM BKN090 OVC110 08/03 A3035 RMK  
AO2  
 
METAR KFMM 290535Z AUTO 29006KT 10SM SCT070 SCT080 BKN120 12/07 A3023  
RMK AO2 T01170073  
METAR KFMM 290515Z AUTO 30007KT 10SM SCT060 BKN075 OVC090 13/07 A3024  
RMK AO2 T01250073  
METAR KFMM 290455Z AUTO 33008KT 10SM SCT075 OVC100 12/08 A3023 RMK AO2  
T01200077  
 
METAR KSTK 290530Z AUTO 33010KT 10SM SCT070 09/07 A3020 RMK AO2  
METAR KSTK 290510Z AUTO 28004KT 10SM SCT070 10/07 A3019 RMK AO2  
METAR KSTK 290430Z AUTO 00000KT 10SM SCT110 13/08 A3017 RMK AO2  
 
METAR KAKO 290453Z AUTO 27005KT 10SM SCT110 12/06 A3020 RMK AO2 SLP191  
T01170056 $  
METAR KAKO 290353Z AUTO 27005KT 10SM BKN100 BKN120 12/06 A3020 RMK AO2  
PK WND 31027/0257 RAE09 SLP196 P0000 T01220061 $  
METAR KAKO 290253Z AUTO 33017KT 10SM -RA FEW055 SCT070 OVC090 14/06  
A3022 RMK AO2 RAB53 SLP202 P0000 60000 T01440056 53020 $  
 
METAR KLIC 290455Z AUTO 01007KT 10SM CLR 09/06 A3025 RMK AO2 SLP202  
T00890061  
METAR KLIC 290355Z AUTO 02014KT 10SM SCT090 OVC110 12/07 A3025 RMK AO2  
SLP197 T01170072  
METAR KLIC 290255Z AUTO 00000KT 10SM CLR 10/07 A3022 RMK AO2 SLP192  
T01000067 53004  
 
METAR K2V5 290535Z AUTO 35008KT 10SM CLR 11/08 A3017 RMK AO2  
METAR K2V5 290515Z AUTO 34009KT 10SM CLR 12/08 A3017 RMK AO2  
METAR K2V5 290455Z AUTO 34006KT 10SM SCT110 12/08 A3017 RMK AO2  
 
METAR KITR 290453Z AUTO 33009KT 10SM CLR 12/07 A3019 RMK AO2 WSHFT 0351  
SLP188 T01220072  
SPECI KITR 290411Z AUTO 36009KT 10SM SCT095 BKN120 15/07 A3019 RMK AO2  
WSHFT 0351 T01500072  
METAR KITR 290353Z AUTO 32014G18KT 10SM BKN100 13/08 A3018 RMK AO2  
PRESRR SLP185 T01280083  
 
SUNRISE/SUNSET FOR 05/28/2017  
FORT COLLINS - 05:33:29 MDT / 20:21:45 MDT  
DENVER - 05:35:31 MDT / 20:18:52 MDT  
STERLING - 05:25:47 MDT / 20:14:38 MDT  
 
DENVER/BOULDER (KFTG) 05/29/17 05:35 UTC  
RADAR VAD WINDS HEIGHT DIR/SPD(KT)  
22600 FT MSL...280/016  
22000 FT MSL...296/021  
20000 FT MSL...297/024  
19000 FT MSL...299/026  
18000 FT MSL...304/026  
17000 FT MSL...300/027  
16100 FT MSL...294/026  
16000 FT MSL...302/023  
15000 FT MSL...300/022  
14000 FT MSL...289/019  
13100 FT MSL...335/022  
13000 FT MSL...258/017  
12000 FT MSL...179/011  
11000 FT MSL...157/012  
8300 FT MSL...080/011  
8000 FT MSL...354/013  
7000 FT MSL...110/011  
6600 FT MSL...108/017  
6500 FT MSL...105/006  
6000 FT MSL...137/018  
 
DENVER/BOULDER AVIATION DISCUSSION  
ISSUED AT 0208 UTC MONDAY, MAY 29, 2017  
   
AVIATION
 
(FOR THE 00Z TAFS THROUGH 00Z MONDAY EVENING)  
ISSUED AT 800 PM MDT SUN MAY 28 2017  
ONE WEAK BNDRY WAS MOVING ACROSS DIA AT 02Z AND ANOTHER STRONGER  
FEATURE OVER ECNTRL WY MAY AFFECT THE AREA BETWEEN 06Z AND 08Z.  
MEANWHILE THERE IS SOME POTENTIAL FOR A FEW LIGHT SHOWERS THRU 06Z  
HOWEVER CEILINGS WITH THIS ACTIVITY SHOULD STAY AOA 7000 FT.  
 
* * * * * SOUTHEAST COLORADO * * * * *  
 
METAR K4BM 290536Z AUTO 11005KT 10SM CLR 02/M05 A3052 RMK AO2  
METAR K4BM 290516Z AUTO 13005KT 10SM CLR 02/M05 A3053 RMK AO2  
METAR K4BM 290456Z AUTO 13005KT 10SM CLR 02/M05 A3052 RMK AO2  
 
METAR KAFF 290458Z AUTO 01009KT 10SM CLR 07/02 A3029 RMK AO2 SLP214  
T00730024  
METAR KAFF 290358Z AUTO 36007KT 10SM CLR 09/03 A3028 RMK AO2 SLP205  
T00880027  
METAR KAFF 290258Z AUTO 08006KT 10SM FEW120 12/03 A3027 RMK AO2 SLP197  
T01190030 51008  
 
KCOS 290520Z 2906/3006 03006KT P6SM SCT140  
FM291600 12009KT P6SM SCT100  
FM292100 13010KT P6SM VCTS SCT050CB BKN100  
FM300000 06010KT P6SM VCTS SCT050CB BKN100  
FM300500 VRB05KT P6SM BKN100  
METAR KCOS 290454Z 08005KT 10SM SCT140 11/03 A3028 RMK AO2 SLP201  
T01110033 $  
METAR KCOS 290354Z 00000KT 10SM SCT140 12/03 A3028 RMK AO2 SLP203  
T01170028 $  
METAR KCOS 290254Z 28006KT 10SM FEW070 FEW100 14/02 A3026 RMK AO2 SLP193  
T01440022 53006 $  
 
METAR KABH 290456Z AUTO 00000KT CLR A3027 RMK AO2 SLPNO $  
METAR KABH 290356Z AUTO 14003KT CLR A3027 RMK AO2 SLPNO $  
METAR KABH 290256Z AUTO 11006KT CLR A3025 RMK AO2 SLPNO 53006 $  
 
METAR KFLY 290535Z AUTO 01006KT 10SM CLR 08/02 A3034 RMK AO2  
T00840022  
METAR KFLY 290515Z AUTO 35004KT 10SM CLR 09/01 A3032 RMK AO2  
T00890005  
METAR KFLY 290455Z AUTO 33004KT 10SM CLR 10/01 A3032 RMK AO2  
T00960010  
 
KFCS 290502Z 2905/3011 26009KT 9999 SKC QNH3025INS  
BECMG 2919/2920 13012G18KT 9999 -SHRA VCTS BKN080CB  
QNH3018INS  
TEMPO 2921/3002 13020G30KT 8000 -TSRA BKN040CB  
BECMG 3002/3003 28009KT 9999 NSW SCT200 QNH3018INS  
TX21/2921Z  
TN06/2912Z  
METAR KFCS 290458Z AUTO 00000KT 10SM CLR 10/01 A3026 RMK AO2 SLP222  
T01040014  
METAR KFCS 290358Z AUTO 25003KT 10SM CLR 15/00 A3025 RMK AO2 SLP210  
T01511002  
METAR KFCS 290258Z AUTO 24004KT 10SM CLR 14/02 A3024 RMK AO2 SLP215  
T01380019 52007  
 
KPUB 290520Z 2906/3006 VRB04KT P6SM FEW150  
FM291600 11007KT P6SM FEW070 SCT150  
FM292000 08011KT P6SM SCT070 SCT150  
FM300000 04014KT P6SM VCTS SCT060CB BKN100  
FM300500 VRB06KT P6SM SCT060 BKN100  
METAR KPUB 290453Z AUTO 00000KT 10SM CLR 12/05 A3020 RMK AO2 SLP189  
T01170050  
METAR KPUB 290353Z AUTO 00000KT 10SM CLR 14/04 A3019 RMK AO2 SLP180  
T01440044  
METAR KPUB 290253Z 19004KT 10SM CLR 17/03 A3017 RMK AO2 SLP175 T01720033  
53004  
 
METAR KVTP 290540Z AUTO 35003KT 10SM OVC095 04/M02 A3054 RMK AO2  
METAR KVTP 290520Z AUTO 01010KT 10SM OVC095 04/M02 A3054 RMK AO2  
METAR KVTP 290500Z AUTO 03007KT 10SM BKN085 04/M02 A3054 RMK AO2  
 
METAR KTAD 290454Z AUTO 33003KT 10SM CLR 09/02 A3025 RMK AO2 SLP195  
T00940022 TSNO  
METAR KTAD 290354Z AUTO 19006KT 10SM CLR 11/01 A3025 RMK AO2 SLP193  
T01060011 TSNO  
METAR KTAD 290254Z AUTO 10004KT 10SM CLR 14/01 A3023 RMK AO2 SLP185  
T01390006 53001 TSNO  
 
METAR KLHX 290453Z AUTO 22006KT 10SM CLR 16/06 A3018 RMK AO2 SLP175  
T01560061  
METAR KLHX 290353Z AUTO 22007KT 10SM CLR 16/06 A3016 RMK AO2 SLP172  
T01610056  
METAR KLHX 290253Z AUTO 20004KT 10SM CLR 19/05 A3016 RMK AO2 SLP169  
T01890050 53002  
 
METAR KLAA 290453Z AUTO 21006KT 10SM CLR 09/06 A3014 RMK AO2 SLP178  
T00890061  
METAR KLAA 290353Z AUTO 20005KT 10SM CLR 12/06 A3013 RMK AO2 SLP172  
T01220061  
METAR KLAA 290253Z AUTO 21005KT 10SM CLR 13/04 A3011 RMK AO2 SLP168  
T01330044 55000  
 
METAR KSPD 290456Z AUTO 24003KT 08/06 A3019 RMK AO1 SLP185 T00830056  
METAR KSPD 290356Z AUTO 24004KT 11/07 A3019 RMK AO1 SLP183 T01060067  
METAR KSPD 290256Z AUTO 23003KT 12/07 A3017 RMK AO1 SLP178 T01220072  
53001  
 
SUNRISE/SUNSET FOR 05/28/2017  
BURLINGTON - 05:25:59 MDT / 20:06:53 MDT  
PUEBLO - 05:38:20 MDT / 20:13:19 MDT  
LAMAR - 05:30:50 MDT / 20:04:48 MDT  
 
PUEBLO (KPUX) 05/29/17 05:38 UTC  
RADAR VAD WINDS HEIGHT DIR/SPD(KT)  
21000 FT MSL...278/024  
20000 FT MSL...273/024  
19000 FT MSL...276/024  
18000 FT MSL...270/024  
17000 FT MSL...270/023  
16500 FT MSL...273/021  
16000 FT MSL...274/024  
14000 FT MSL...180/033  
13000 FT MSL...188/026  
12400 FT MSL...187/033  
12000 FT MSL...166/023  
11000 FT MSL...130/021  
10900 FT MSL...126/019  
10000 FT MSL...115/018  
9600 FT MSL...126/020  
9000 FT MSL...131/020  
8600 FT MSL...129/020  
8000 FT MSL...136/020  
7800 FT MSL...140/020  
7000 FT MSL...152/020  
7000 FT MSL...150/020  
6300 FT MSL...152/020  
6000 FT MSL...156/022  
5900 FT MSL...154/019  
5700 FT MSL...153/019  
 
PUEBLO AVIATION DISCUSSION  
ISSUED AT 0520 UTC MONDAY, MAY 29, 2017  
   
AVIATION
 
(FOR THE 06Z TAFS THROUGH 06Z MONDAY NIGHT)  
ISSUED AT 1117 PM MDT SUN MAY 28 2017  
KALS...VRB CONDITIONS THROUGH THE NEXT 24 HOURS WITH MID AND HIGH  
LEVEL CLOUDS PASSING OVER THE TERMINAL. WINDS WILL GENERALLY BE  
AROUND OR LESS THAN 10 KTS THROUGH THE PERIOD.  
KCOS AND KPUB...VFR CONDITIONS THROUGH MONDAY AFTERNOON. SHOWERS  
AND THUNDERSTORMS ARE EXPECTED TO DEVELOP OVER THE PALMER DIVIDE  
BY MID AFTERNOON WITH SOUTHWARD DEVELOP THROUGH THE LATE AFTERNOON  
AND EARLY EVENING, INITIALLY AT KCOS AND THEN KPUB. CIGS AND VIS  
WILL BE REDUCED WITH ANY PASSING THUNDERSTORMS. MOZLEY  
 
* * * * * NORTHWEST COLORADO * * * * *  
 
METAR KCAG 290453Z AUTO 36003KT 10SM CLR 07/02 A3027 RMK AO2 SLP215  
T00670022  
METAR KCAG 290353Z AUTO 00000KT 10SM CLR 08/02 A3026 RMK AO2 SLP217  
T00780022  
METAR KCAG 290253Z AUTO 20003KT 10SM CLR 11/03 A3024 RMK AO2 SLP208  
T01110028 55000  
 
METAR KHDN 290535Z AUTO 12007KT 10SM CLR 08/M02 A3028 RMK AO1  
METAR KHDN 290515Z AUTO 14004KT 10SM CLR 08/M01 A3028 RMK AO1  
METAR KHDN 290455Z AUTO 12004KT 10SM CLR 08/M01 A3028 RMK AO1  
 
METAR K33V 290535Z AUTO 12003KT 10SM 04/M01 A3037 RMK AO1  
METAR K33V 290515Z AUTO 11004KT 10SM 04/M00 A3038 RMK AO1  
METAR K33V 290455Z AUTO 13006KT 10SM 05/M01 A3037 RMK AO1  
 
METAR KEEO 290453Z AUTO 05004KT 10SM CLR 08/M01 A3027 RMK AO2 SLP198  
T00781006  
METAR KEEO 290353Z AUTO 00000KT 10SM CLR 11/00 A3026 RMK AO2 SLP195  
T01110000  
METAR KEEO 290253Z AUTO 00000KT 10SM CLR 12/00 A3024 RMK AO2 SLP194  
T01170000 53004  
 
METAR K20V 290535Z AUTO 00000KT 10SM CLR 08/02 A3034 RMK AO2  
METAR K20V 290515Z AUTO 00000KT 10SM CLR 10/02 A3034 RMK AO2  
METAR K20V 290455Z AUTO 19004KT 10SM CLR 10/02 A3033 RMK AO2  
 
METAR K0CO 290535Z AUTO 16005KT 10SM SCT036 BKN055 OVC070 M02/M08 A3055  
RMK AO2  
METAR K0CO 290515Z AUTO 15008KT 10SM SCT050 SCT060 M02/M07 A3055 RMK  
AO2  
METAR K0CO 290455Z AUTO 18006KT 10SM SCT050 BKN065 M01/M07 A3055 RMK  
AO2  
 
KGJT 290541Z 2906/3006 11008KT P6SM SKC  
FM291600 15006KT P6SM FEW120  
FM292000 30007KT P6SM SCT120  
FM300200 03005KT P6SM FEW120  
FM300500 09006KT P6SM SKC  
METAR KGJT 290453Z AUTO 03008KT 10SM CLR 18/M04 A3013 RMK AO2 SLP150  
T01831044  
METAR KGJT 290353Z AUTO 36006KT 10SM CLR 18/M04 A3013 RMK AO2 SLP150  
T01831044  
METAR KGJT 290253Z 00000KT 10SM CLR 18/M04 A3011 RMK AO2 SLP148  
T01781039 56003  
 
KRIL 290541Z 2906/3006 VRB03KT P6SM SKC  
FM292000 30008KT P6SM SCT110  
FM300300 11004KT P6SM FEW110  
FM300500 VRB03KT P6SM SKC  
METAR KRIL 290453Z AUTO 27005KT 10SM CLR 17/M03 A3021 RMK AO2 SLP176  
T01671028  
METAR KRIL 290353Z AUTO 28006KT 10SM CLR 18/M03 A3020 RMK AO2 SLP176  
T01781028  
METAR KRIL 290253Z AUTO 00000KT 10SM CLR 19/M03 A3017 RMK AO2 SLP170  
T01891028 53006  
 
METAR K5SM 290535Z AUTO 02003KT 10SM CLR 03/M06 A3050 RMK AO2  
METAR K5SM 290515Z AUTO 36003KT 10SM CLR 04/M06 A3050 RMK AO2  
METAR K5SM 290455Z AUTO 36003KT 10SM CLR 04/M06 A3050 RMK AO2  
 
KEGE 290541Z 2906/3006 07004KT P6SM SKC  
FM291000 00000KT P6SM SKC  
FM292000 27007KT P6SM VCSH SCT100  
FM292300 30009KT P6SM VCSH SCT100  
FM300200 07005KT P6SM FEW100 AMD LTD TO CLD VIS AND WIND TIL  
291300  
METAR KEGE 290456Z AUTO 07004KT 10SM CLR 10/M01 A3030 RMK AO2 SLP237  
T01001011  
METAR KEGE 290356Z AUTO 07009KT 10SM CLR 12/M02 A3028 RMK AO2 SLP230  
T01221017  
METAR KEGE 290256Z AUTO VRB04KT 10SM CLR 15/M03 A3026 RMK AO2 SLP222  
T01501028 53007  
 
KASE 290541Z 2906/3006 21009KT P6SM SKC  
FM291500 VRB03KT P6SM SKC  
FM291700 36005KT P6SM FEW090  
FM292000 33010G15KT P6SM VCSH SCT090  
FM300200 20008KT P6SM SCT090  
METAR KASE 290453Z AUTO 21009KT 10SM CLR 07/M02 A3032 RMK AO2 SLP187  
T00671017  
METAR KASE 290353Z AUTO 21008KT 10SM CLR 07/M01 A3030 RMK AO2 SLP185  
T00721006  
METAR KASE 290253Z AUTO 20004KT 10SM CLR 09/00 A3028 RMK AO2 SLP177  
T00940000 53005  
 
METAR KCCU 290535Z AUTO 00000KT 10SM SCT100 03/M05 A3053 RMK AO2  
METAR KCCU 290515Z AUTO 01005KT 10SM CLR 03/M06 A3052 RMK AO2  
METAR KCCU 290455Z AUTO 33004KT 10SM CLR 03/M07 A3052 RMK AO2  
 
METAR KLXV 290453Z AUTO 03004KT 10SM CLR 01/M06 A3041 RMK AO2 SLP206  
T00061056  
METAR KLXV 290353Z AUTO 04006KT 10SM CLR 02/M06 A3041 RMK AO2 SLP204  
T00221056  
METAR KLXV 290253Z AUTO 35008KT 10SM CLR 07/M06 A3039 RMK AO2 SLP187  
T00671056 53004  
 
SUNRISE/SUNSET FOR 05/28/2017  
RANGELY - 05:49:43 MDT / 20:35:12 MDT  
GRAND JUNCTION - 05:51:44 MDT / 20:31:23 MDT  
STEAMBOAT SPRINGS - 05:40:44 MDT / 20:28:32 MDT  
 
GRAND JUNCTION (KGJX) 05/29/17 05:30 UTC  
RADAR VAD WINDS HEIGHT DIR/SPD(KT)  
16000 FT MSL...181/021  
15000 FT MSL...181/023  
14600 FT MSL...181/023  
14000 FT MSL...183/021  
13000 FT MSL...173/021  
12800 FT MSL...170/019  
12000 FT MSL...162/014  
11100 FT MSL...162/011  
11000 FT MSL...293/003  
11000 FT MSL...153/011  
 
GRAND JUNCTION AVIATION DISCUSSION  
ISSUED AT 0503 UTC MONDAY, MAY 29, 2017  
   
AVIATION
 
(FOR THE 06Z TAFS THROUGH 06Z MONDAY NIGHT)  
ISSUED AT 1103 MDT SUN MAY 28 2017  
A RIDGE OF HIGH PRESSURE TO THE WEST WILL LIMIT THE INFLUX OF  
MOISTURE INTO THE REGION OVER THE NEXT 24 HOURS. AS A RESULT,  
TAF SITES WILL NOT EXPERIENCE CIGS BELOW ILS BREAKPOINTS AND VFR  
CONDITIONS WILL PERSIST. THOUGH MOISTURE WILL BE LIMITED,  
SCATTERED SHOWERS AND THUNDERSTORMS ARE EXPECTED TO DEVELOP OVER  
THE EASTERN UINTA MOUNTAINS AND THE MOUNTAINS ALONG THE  
CONTINENTAL DIVIDE IN COLORADO. UNPREDICTABLE AND STRONG OUTFLOW  
WINDS FROM HIGH BASED SHOWERS/THUNDERSTORMS MAY BE EXPERIENCED AT  
KRIL, KEGE, KRIL AND KVEL FROM 20Z THROUGH 03Z/TUESDAY.  
 
* * * * * SOUTHWEST COLORADO * * * * *  
 
METAR KAJZ 290535Z AUTO 00000KT 10SM CLR 16/M04 A3018 RMK AO2  
T01551037  
METAR KAJZ 290515Z AUTO 09005KT 10SM CLR 16/M05 A3017 RMK AO2  
T01631051  
METAR KAJZ 290455Z AUTO 06007KT 10SM CLR 16/M06 A3017 RMK AO2  
T01571058  
 
KMTJ 290541Z 2906/3006 13007KT P6SM SKC  
FM291500 VRB03KT P6SM FEW110  
FM291800 35005KT P6SM FEW110  
FM292000 32008KT P6SM SCT110  
FM300200 13007KT P6SM FEW110  
METAR KMTJ 290453Z AUTO 13007KT 10SM CLR 12/M04 A3022 RMK AO2 SLP180  
T01221044  
METAR KMTJ 290353Z AUTO 14008KT 10SM CLR 14/M04 A3021 RMK AO2 SLP175  
T01391044  
METAR KMTJ 290253Z AUTO 27005KT 10SM CLR 18/M08 A3019 RMK AO2 SLP166  
T01831078 53004  
 
METAR KGUC 290456Z AUTO 00000KT 10SM CLR 08/M05 A3032 RMK AO2 SLP224  
T00831050  
METAR KGUC 290356Z AUTO 20004KT 10SM CLR 10/M05 A3030 RMK AO2 SLP221  
T01001050  
METAR KGUC 290256Z AUTO 35007KT 10SM CLR 11/M07 A3028 RMK AO2 SLP220  
T01111072 53009  
 
METAR K7BM 290534Z AUTO 00000KT 10SM CLR 08/M06 A3043 RMK AO2  
METAR K7BM 290514Z AUTO 00000KT 10SM SCT100 08/M06 A3043 RMK AO2  
METAR K7BM 290454Z AUTO 00000KT 10SM BKN100 08/M06 A3043 RMK AO2  
 
METAR KAEJ 290535Z AUTO 25003KT 10SM CLR 06/M03 A3035 RMK AO2  
T00581033  
METAR KAEJ 290515Z AUTO 10003KT 10SM SCT110 09/M04 A3035 RMK AO2  
T00931045  
METAR KAEJ 290455Z AUTO 00000KT 10SM SCT120 10/M05 A3035 RMK AO2  
T00981048  
 
METAR KANK 290535Z AUTO 10004KT 10SM CLR 12/M02 A3040 RMK AO1  
T01181018  
METAR KANK 290515Z AUTO 08005KT 10SM SCT120 12/M02 A3040 RMK AO1  
T01231018  
METAR KANK 290455Z AUTO 09004KT 10SM SCT120 13/M02 A3040 RMK AO1  
T01251020  
 
METAR KMYP 290530Z AUTO 07015KT 10SM CLR 00/M03 A3061 RMK AO2  
METAR KMYP 290513Z AUTO 06015KT 10SM CLR 01/M04 A3061 RMK AO2  
METAR KMYP 290452Z AUTO 06015KT 10SM CLR 01/M05 A3061 RMK AO2  
 
METAR KAIB 290535Z AUTO 12009KT 10SM CLR 12/M06 A3025 RMK AO2  
METAR KAIB 290515Z AUTO 12007KT 10SM CLR 12/M07 A3025 RMK AO2  
METAR KAIB 290455Z AUTO 11009KT 10SM CLR 13/M07 A3025 RMK AO2  
 
KTEX 290541Z 2906/3006 13004KT P6SM SKC  
FM291800 27008KT P6SM VCSH SCT090  
FM300200 11004KT P6SM FEW090  
METAR KTEX 290535Z AUTO 13004KT 10SM CLR 07/M08 A3040 RMK AO2  
T00701078  
METAR KTEX 290515Z AUTO 15004KT 10SM CLR 07/M07 A3040 RMK AO2  
T00731074  
METAR KTEX 290455Z AUTO 16003KT 10SM CLR 08/M07 A3040 RMK AO2  
T00791075  
 
METAR K04V 290537Z AUTO 01010KT 10SM SCT120 11/M06 A3031 RMK AO2  
METAR K04V 290517Z AUTO 34009KT 10SM SCT120 12/M06 A3031 RMK AO2  
METAR K04V 290457Z AUTO 31012KT 10SM CLR 12/M06 A3031 RMK AO2  
 
METAR KCEZ 290453Z AUTO 07008KT 10SM CLR 08/M01 A3020 RMK AO2 SLP176  
T00831006  
METAR KCEZ 290353Z AUTO 08006KT 10SM CLR 11/M01 A3019 RMK AO2 SLP173  
T01061006  
METAR KCEZ 290253Z AUTO 16005KT 10SM CLR 14/M01 A3018 RMK AO2 SLP169  
T01391006 53001  
 
KDRO 290541Z 2906/3006 35004KT P6SM SKC  
FM290900 04005KT P6SM SKC  
FM292000 23008KT P6SM FEW110  
FM292300 27010KT P6SM FEW110  
FM300200 35007KT P6SM SKC  
METAR KDRO 290453Z AUTO 35004KT 10SM CLR 11/M08 A3022 RMK AO2 SLP176  
T01061078  
METAR KDRO 290353Z AUTO 22003KT 10SM CLR 12/M08 A3022 RMK AO2 SLP175  
T01221083  
METAR KDRO 290253Z AUTO 27006KT 10SM CLR 16/M09 A3020 RMK AO2 SLP166  
T01611089 53001  
 
METAR KPSO 290535Z AUTO 00000KT 10SM CLR 07/M10 A3030 RMK AO2  
T00701101  
METAR KPSO 290515Z AUTO 04003KT 10SM CLR 07/M10 A3030 RMK AO2  
T00721105  
METAR KPSO 290455Z AUTO 00000KT 10SM CLR 07/M10 A3030 RMK AO2  
T00681100  
 
METAR KCPW 290529Z AUTO 00000KT 10SM CLR 03/M13 A3056 RMK AO2  
METAR KCPW 290515Z AUTO 00000KT 10SM CLR 02/M11 A3056 RMK AO2  
METAR KCPW 290452Z AUTO 10003KT 10SM CLR 02/M13 A3056 RMK AO2  
 
KALS 290520Z 2906/3006 VRB06KT P6SM FEW120  
FM291800 26010KT P6SM FEW060 SCT150  
FM300100 11012KT P6SM SCT060 BKN100  
FM300400 VRB06KT P6SM FEW060 BKN100  
METAR KALS 290452Z AUTO 06004KT 10SM FEW120 11/M01 A3028 RMK AO2 SLP189  
T01061006  
METAR KALS 290352Z AUTO 06008KT 10SM FEW120 12/M01 A3026 RMK AO2 SLP180  
T01221006  
METAR KALS 290252Z AUTO 12006KT 10SM FEW120 13/00 A3024 RMK AO2 SLP178  
T01330000 53002  
 
SUNRISE/SUNSET FOR 05/28/2017  
VAIL - 05:41:21 MDT / 20:24:12 MDT  
DURANGO - 05:54:00 MDT / 20:23:38 MDT  
ALAMOSA - 05:45:32 MDT / 20:16:09 MDT  
 
GRAND JUNCTION (KGJX) 05/29/17 05:30 UTC  
RADAR VAD WINDS HEIGHT DIR/SPD(KT)  
16000 FT MSL...181/021  
15000 FT MSL...181/023  
14600 FT MSL...181/023  
14000 FT MSL...183/021  
13000 FT MSL...173/021  
12800 FT MSL...170/019  
12000 FT MSL...162/014  
11100 FT MSL...162/011  
11000 FT MSL...293/003  
11000 FT MSL...153/011  
 
GRAND JUNCTION AVIATION DISCUSSION  
ISSUED AT 0503 UTC MONDAY, MAY 29, 2017  
   
AVIATION
 
(FOR THE 06Z TAFS THROUGH 06Z MONDAY NIGHT)  
ISSUED AT 1103 MDT SUN MAY 28 2017  
A RIDGE OF HIGH PRESSURE TO THE WEST WILL LIMIT THE INFLUX OF  
MOISTURE INTO THE REGION OVER THE NEXT 24 HOURS. AS A RESULT,  
TAF SITES WILL NOT EXPERIENCE CIGS BELOW ILS BREAKPOINTS AND VFR  
CONDITIONS WILL PERSIST. THOUGH MOISTURE WILL BE LIMITED,  
SCATTERED SHOWERS AND THUNDERSTORMS ARE EXPECTED TO DEVELOP OVER  
THE EASTERN UINTA MOUNTAINS AND THE MOUNTAINS ALONG THE  
CONTINENTAL DIVIDE IN COLORADO. UNPREDICTABLE AND STRONG OUTFLOW  
WINDS FROM HIGH BASED SHOWERS/THUNDERSTORMS MAY BE EXPERIENCED AT  
KRIL, KEGE, KRIL AND KVEL FROM 20Z THROUGH 03Z/TUESDAY.  
 
* * * * * ARIZONA * * * * *  
 
KPGA 282329Z 2900/2924 VRB05KT P6SM FEW120  
METAR KPGA 290453Z AUTO VRB03KT 10SM CLR 22/M08 A3007 RMK AO2 SLP124  
T02171078 TSNO  
METAR KPGA 290353Z AUTO 13003KT 10SM CLR 23/M07 A3006 RMK AO2 SLP122  
T02281072 TSNO  
METAR KPGA 290253Z AUTO 05004KT 10SM CLR 25/M08 A3006 RMK AO2 SLP120  
T02501083 56007 TSNO  
 
METAR KRQE 290453Z AUTO 03003KT 9SM CLR 11/M06 A3025 RMK AO2 SLP147  
T01061061 TSNO  
METAR KRQE 290353Z AUTO 35003KT 10SM CLR 15/M07 A3023 RMK AO2 SLP132  
T01501072 TSNO  
METAR KRQE 290253Z AUTO 00000KT 10SM CLR 16/M07 A3021 RMK AO2 SLP135  
T01611067 53004 TSNO  
 
FLAGSTAFF (KFSX) 05/29/17 05:33 UTC  
RADAR VAD WINDS HEIGHT DIR/SPD(KT)  
16000 FT MSL...139/026  
15200 FT MSL...137/026  
15000 FT MSL...138/026  
14000 FT MSL...137/024  
13600 FT MSL...136/024  
13000 FT MSL...133/021  
12000 FT MSL...130/019  
11900 FT MSL...130/019  
11000 FT MSL...126/015  
10100 FT MSL...111/009  
10000 FT MSL...090/009  
9000 FT MSL...096/006  
8400 FT MSL...298/009  
8000 FT MSL...248/005  
7800 FT MSL...260/010  
 
FLAGSTAFF AVIATION DISCUSSION  
ISSUED AT 0424 UTC MONDAY, MAY 29, 2017  
   
AVIATION...FOR THE 06Z PACKAGE
 
LOCAL DENSE SMOKE IS POSSIBLE  
FROM FOREST FIRES AFTER SUNSET FROM 03Z THROUGH 12Z. OTHERWISE,  
VFR CONDITIONS WILL CONTINUE OVER NORTHERN ARIZONA FOR THE NEXT 24  
HOURS. AVIATION DISCUSSION NOT UPDATED FOR TAF AMENDMENTS.  
 
* * * * * UTAH * * * * *  
 
KSLC 290520Z 2906/3012 15005KT P6SM SKC  
FM291800 33008KT P6SM SKC  
FM300300 15005KT P6SM SKC  
METAR KSLC 290454Z 00000KT 10SM CLR 19/06 A3015 RMK AO2 SLP165  
T01940061  
METAR KSLC 290354Z 34007KT 10SM CLR 19/07 A3014 RMK AO2 SLP164  
T01890072  
METAR KSLC 290254Z 01007KT 10SM CLR 21/05 A3013 RMK AO2 SLP161 T02110050  
56006  
 
KVEL 290541Z 2906/3006 28005KT P6SM FEW120  
FM291500 VRB03KT P6SM SKC  
FM291900 14004KT P6SM SCT120  
FM300200 01006KT P6SM FEW120  
METAR KVEL 290453Z AUTO 28003KT 10SM FEW120 15/02 A3019 RMK AO2 SLP173  
T01500017  
METAR KVEL 290353Z AUTO 33007KT 10SM CLR 17/02 A3018 RMK AO2 SLP173  
T01670022  
METAR KVEL 290253Z AUTO 32004KT 10SM CLR 19/00 A3017 RMK AO2 SLP169  
T01890000 55004  
 
METAR KPUC 290453Z AUTO 02005KT 10SM CLR 13/M02 A3020 RMK AO2 SLP178  
T01331017  
METAR KPUC 290353Z AUTO 01008KT 10SM OVC110 17/M02 A3020 RMK AO2 SLP170  
T01721017  
METAR KPUC 290253Z AUTO 03006KT 10SM CLR 18/M02 A3018 RMK AO2 SLP167  
T01781017 55001  
 
KCNY 290541Z 2906/3006 00000KT P6SM SKC  
FM292300 31006KT P6SM FEW250  
FM300300 02005KT P6SM SKC  
METAR KCNY 290453Z AUTO 00000KT 10SM CLR 16/M12 A3010 RMK AO2 SLP148  
T01611117  
METAR KCNY 290353Z AUTO 25005KT 10SM CLR 18/M11 A3010 RMK AO2 SLP146  
T01781106  
METAR KCNY 290253Z AUTO 28003KT 10SM CLR 22/M10 A3009 RMK AO2 SLP139  
T02171100 56006  
 
SALT LAKE CITY (KMTX) 05/29/17 05:29 UTC  
RADAR VAD WINDS HEIGHT DIR/SPD(KT)  
16000 FT MSL...105/011  
15000 FT MSL...167/024  
14400 FT MSL...113/011  
14000 FT MSL...161/020  
13000 FT MSL...151/026  
12800 FT MSL...151/026  
12000 FT MSL...151/023  
11000 FT MSL...151/020  
11000 FT MSL...151/019  
10000 FT MSL...152/019  
9300 FT MSL...142/017  
9000 FT MSL...139/017  
8000 FT MSL...137/013  
7600 FT MSL...127/015  
7500 FT MSL...115/011  
7000 FT MSL...103/011  
6900 FT MSL...103/010  
 
SALT LAKE CITY AVIATION DISCUSSION  
ISSUED AT 0251 UTC MONDAY, MAY 29, 2017  
   
AVIATION
 
VFR CONDITIONS WILL PREVAIL AT KSLC THROUGH THE TAF  
PERIOD. NORTH WINDS ARE EXPECTED TO SWITCH BACK TO THE SOUTH BY  
04Z.  
 
* * * * * WYOMING * * * * *  
 
KEVW 290520Z 2906/3006 01005KT P6SM SKC  
FM290700 09006KT P6SM SKC  
FM291800 06007KT P6SM FEW080  
FM300300 09006KT P6SM SKC=  
METAR KEVW 290453Z AUTO 01006KT 10SM CLR 12/M02 A3031 RMK AO2 SLP194  
T01171017 $  
METAR KEVW 290353Z AUTO 36007KT 10SM CLR 12/M03 A3030 RMK AO2 SLP192  
T01221028 $  
METAR KEVW 290253Z AUTO 34007KT 10SM CLR 13/M01 A3029 RMK AO2 SLP193  
T01331006 55000 $  
 
KRKS 290532Z 2906/3006 06015KT P6SM SCT090  
FM291100 07009KT P6SM SCT090  
FM292300 08008KT P6SM BKN090  
FM300400 08007KT P6SM SCT100  
METAR KRKS 290454Z AUTO 06016KT 10SM CLR 10/03 A3031 RMK AO2 WSHFT 0418  
SLP208 T01000028  
SPECI KRKS 290438Z AUTO 05014G21KT 10SM CLR 10/03 A3030 RMK AO2 WSHFT  
0418 T01000028  
METAR KRKS 290354Z AUTO 34004KT 10SM CLR 14/M06 A3027 RMK AO2 SLP195  
T01441056  
 
KRWL 290535Z 2906/3006 03008KT P6SM BKN080  
FM291800 35010KT P6SM VCSH BKN070  
FM292100 35009KT P6SM SCT150  
METAR KRWL 290453Z AUTO 04014KT 10SM FEW025 FEW055 BKN100 09/03 A3030  
RMK AO2 PRESFR SLP196 T00940028 $  
METAR KRWL 290353Z AUTO 03014G20KT 10SM BKN100 10/03 A3032 RMK AO2 PK  
WND 02028/0322 RAE02 PRESRR SLP210 P0000 T01000028 $  
METAR KRWL 290253Z AUTO 36010KT 10SM -RA SCT060 OVC090 13/03 A3026 RMK  
AO2 RAB52 SLP185 P0000 60000 T01280033 $  
 
KLAR 290535Z 2906/3006 06010KT P6SM VCSH SCT070 OVC100  
FM290900 VRB05KT P6SM SCT100  
FM291800 34010KT P6SM VCSH BKN060  
FM292200 34009KT P6SM BKN100  
FM300200 13007KT P6SM SCT150  
METAR KLAR 290453Z AUTO 06010KT 10SM OVC100 07/02 A3032 RMK AO2 SLP199  
T00720022  
METAR KLAR 290353Z AUTO 01009KT 10SM SCT110 08/01 A3032 RMK AO2 PK WND  
34026/0306 LTG DSNT NE SLP198 T00830011  
METAR KLAR 290253Z AUTO 35009KT 10SM CLR 10/02 A3028 RMK AO2 SLP187  
T01000017 53007  
 
KCYS 290535Z 2906/3006 36012KT P6SM VCSH FEW050 BKN090  
FM290900 01010KT P6SM SCT070  
FM291800 07010KT P6SM VCTS SCT050 BKN100CB  
FM292300 01008KT P6SM OVC100  
METAR KCYS 290453Z AUTO 01011G18KT 10SM FEW048 SCT110 10/04 A3029 RMK  
AO2 LTG DSNT SW SLP204 T01000039  
METAR KCYS 290353Z AUTO 36019G25KT 10SM FEW047 SCT070 SCT120 12/04 A3029  
RMK AO2 LTG DSNT NW SLP201 T01170039  
METAR KCYS 290253Z 02004KT 10SM FEW110 13/04 A3025 RMK AO2 SLP185  
T01280039 53007  
 
RIVERTON (KRIW) 05/29/17 05:29 UTC  
RADAR VAD WINDS HEIGHT DIR/SPD(KT)  
19000 FT MSL...303/016  
18000 FT MSL...305/015  
17000 FT MSL...315/020  
16000 FT MSL...325/018  
15000 FT MSL...334/017  
14000 FT MSL...339/019  
13400 FT MSL...339/020  
13000 FT MSL...316/017  
12000 FT MSL...315/016  
11700 FT MSL...321/014  
11000 FT MSL...330/013  
10000 FT MSL...041/010  
10000 FT MSL...346/013  
9000 FT MSL...132/011  
8300 FT MSL...116/010  
8000 FT MSL...117/017  
7000 FT MSL...141/016  
6700 FT MSL...139/017  
6500 FT MSL...140/012  
6000 FT MSL...160/016  
6000 FT MSL...150/014  
 
RIVERTON AVIATION DISCUSSION  
ISSUED AT 0432 UTC MONDAY, MAY 29, 2017  
   
AVIATION
 
(FOR THE 06Z TAFS THROUGH 06Z TUESDAY)  
ISSUED AT 1030 PM MDT SUN MAY 28 2017  
WEST OF THE CONTINENTAL DIVIDE...KBPI/KJAC/KPNA/KRKS TERMINALS  
VFR CONDITIONS WILL PREVAIL THROUGH MONDAY NIGHT. ISOLATED SHOWERS  
WILL END BY 10Z. THEN SCATTERED SHOWERS AND ISOLATED THUNDERSTORMS  
WILL DEVELOP AFTER 20Z MONDAY AND CONTINUE THROUGH 03Z TUE. GUSTY  
WIND TO 30 KNOTS AND SMALL HAIL ARE LIKELY WITH SOME OF THE STORMS.  
SHOWERS WILL BECOME ISOLATED AFTER 03Z AND END AROUND 06Z  
TUESDAY.  
EAST OF THE CONTINENTAL DIVIDE...KCOD/KCPR/KLND/KRIW/KWRL TERMINALS  
VFR CONDITIONS WILL PREVAIL THROUGH MONDAY NIGHT. ISOLATED SHOWERS  
WILL END BY 10Z. ISOLATED SHOWERS AND THUNDERSTORMS WILL DEVELOP  
AFTER 20Z MONDAY OVER AND NEAR THE MOUNTAINS. THIS ACTIVITY WILL  
END BY 04Z TUESDAY.  
 
CHEYENNE AVIATION DISCUSSION  
ISSUED AT 0307 UTC MONDAY, MAY 29, 2017  
   
AVIATION
 
(FOR THE 00Z TAFS THROUGH 00Z MONDAY EVENING)  
ISSUED AT 537 PM MDT SUN MAY 28 2017  
SCATTERED SHOWERS AND ISOLATED THUNDERSTORMS MOVING SOUTHEAST  
ACROSS THE REGION, WITH POTENTIAL FOR SUDDEN GUSTS TO AROUND 40  
KTS FOR CHADRON AND ALLIANCE WHERE STRONGER STORMS WILL BE MOVING  
THROUGH THE VERY EARLY EVENING HOURS. THESE ARE FAIRLY HIGH BASED  
CONVECTIVE CELLS, SO CEILINGS AND VISIBILITIES NOT EXPECTED TO  
DROP TO IFR AS THEY PASS THROUGH. OTHERWISE EXPECTING MOST OF THE  
SHOWERS AND ISOLATED STORMS TO DIMINISH IN COVERAGE AND INTENSITY  
BY 03Z WITH VFR EXPECTED OVERNIGHT.  
 
* * * * * NEBRASKA * * * * *  
 
METAR KIBM 290535Z AUTO 33010KT 10SM CLR 10/07 A3023 RMK AO2  
T00970065  
METAR KIBM 290515Z AUTO 31008KT 10SM CLR 09/07 A3025 RMK AO2  
T00940065  
METAR KIBM 290455Z AUTO 32006KT 10SM CLR 11/07 A3024 RMK AO2  
T01050066  
 
KSNY 290535Z 2906/3006 31005KT P6SM BKN150  
FM291700 33012G20KT P6SM BKN080  
FM292100 35007KT P6SM BKN250  
METAR KSNY 290453Z AUTO 04006KT 10SM CLR 09/07 A3022 RMK AO2 SLP205  
T00940067  
METAR KSNY 290353Z AUTO 24008KT 10SM CLR 08/06 A3019 RMK AO2 SLP200  
T00780061  
METAR KSNY 290253Z AUTO 24004KT 10SM CLR 08/06 A3017 RMK AO2 SLP194  
60000 T00830061 53009  
 
METAR KOGA 290535Z AUTO 27007KT 10SM CLR 12/08 A3011 RMK AO2  
T01150080  
METAR KOGA 290515Z AUTO 25005KT 10SM SCT110 12/08 A3011 RMK AO2  
T01200081  
METAR KOGA 290455Z AUTO 25005KT 10SM SCT110 11/08 A3012 RMK AO2  
T01120078  
 
METAR KIML 290453Z AUTO 36014KT 10SM CLR 13/07 A3015 RMK AO2 SLP192  
T01330072 $  
METAR KIML 290353Z AUTO 33006KT 10SM FEW100 14/08 A3012 RMK AO2 SLP181  
T01390078 $  
METAR KIML 290253Z AUTO 01007KT 10SM SCT100 14/09 A3010 RMK AO2 RAB07E16  
SLP177 P0000 60000 T01440089 53010 $  
 
KMCK 290529Z 2906/3006 31006KT P6SM VCSH SCT100 BKN200  
FM291400 33008KT P6SM SCT200  
FM291700 33012KT P6SM SCT200  
FM300200 VRB03KT P6SM SCT200  
METAR KMCK 290453Z AUTO 31005KT 10SM FEW100 BKN110 14/09 A3008 RMK AO2  
SLP171 T01390089  
METAR KMCK 290353Z AUTO 34006KT 10SM FEW110 14/08 A3006 RMK AO2 SLP165  
T01440083  
METAR KMCK 290253Z AUTO 01018G29KT 10SM FEW120 18/08 A3006 RMK AO2 PK  
WND 36029/0245 WSHFT 0233 SLP163 T01830083 53008  
 
NORTH PLATTE (KLNX) 05/29/17 05:34 UTC  
RADAR VAD WINDS HEIGHT DIR/SPD(KT)  
6000 FT MSL...323/029  
5900 FT MSL...326/029  
5000 FT MSL...312/033  
4100 FT MSL...293/034  
4000 FT MSL...296/035  
4000 FT MSL...295/035  
3400 FT MSL...280/029  
 
NORTH PLATTE AVIATION DISCUSSION  
ISSUED AT 0408 UTC MONDAY, MAY 29, 2017  
   
AVIATION
 
(FOR THE 06Z TAFS THROUGH 06Z MONDAY NIGHT)  
ISSUED AT 1105 PM CDT SUN MAY 28 2017  
LOCAL RADAR SHOWS A FEW WIDELY ISOLATED SHOWERS PRESENT, OTHERWISE  
CONDITIONS ARE QUIET. LATEST SURFACE PLOT SHOWS HIGH-END VFR  
CEILINGS (GREATER THAN 7 KFT) WITH SATELLITE IMAGERY SHOWING  
DECREASING CLOUD COVER OVER THE LAST HOUR. SKIES WILL CONTINUE TO  
CLEAR GRADUALLY WITH MOSTLY CLEAR SKIES ANTICIPATED ACROSS MUCH OF  
WESTERN AND NORTH CENTRAL NEB BY THE EARLY MORNING. MOSTLY SUNNY  
SKIES WILL PREVAIL TOMORROW. GENERALLY LIGHT WINDS WILL PREVAIL  
OVERNIGHT WITH BREEZY NORTHWEST WINDS DEVELOPING AGAIN MONDAY.  
STRONGEST WINDS OVER NORTH CENTRAL NEB (GUSTS UP TO 25 MPH) IN THE  
AFTERNOON WITH LIGHTER WINDS TOWARDS SOUTHWEST NEB (TO 15 MPH).  
WINDS THEN LESSEN TOMORROW EVENING.  
 
* * * * * KANSAS * * * * *  
 
KGLD 290529Z 2906/3006 31008KT P6SM VCSH SCT100 BKN200  
FM291600 VRB06KT P6SM SCT200  
METAR KGLD 290453Z AUTO 34007KT 10SM CLR 12/09 A3014 RMK AO2 WSHFT 0352  
SLP179 T01220089  
SPECI KGLD 290412Z AUTO 35011KT 10SM CLR 14/09 A3014 RMK AO2 WSHFT 0352  
T01440089  
METAR KGLD 290353Z AUTO 32010KT 10SM SCT110 14/08 A3013 RMK AO2 SLP174  
T01440083  
 
KGCK 290520Z 2906/3006 24005KT P6SM SKC  
FM291200 30005KT P6SM SKC  
FM291700 01008KT P6SM SKC  
FM292200 04007KT P6SM SKC  
METAR KGCK 290454Z AUTO 22005KT 10SM CLR 15/04 A3009 RMK AO2 SLP165  
T01500044  
METAR KGCK 290354Z AUTO 17005KT 10SM CLR 14/05 A3009 RMK AO2 SLP168  
T01390050  
METAR KGCK 290254Z AUTO 35003KT 10SM CLR 19/02 A3008 RMK AO2 SLP162  
T01940022 53001  
 
METAR KLBL 290456Z AUTO 27005KT 10SM CLR 13/09 A3011 RMK AO2 SLP178  
T01330094  
METAR KLBL 290356Z AUTO 28006KT 10SM CLR 14/09 A3011 RMK AO2 SLP177  
T01440094  
METAR KLBL 290256Z AUTO 28005KT 10SM CLR 17/09 A3010 RMK AO2 SLP174  
T01720089 53001  
 
METAR KEHA 290528Z AUTO 16/02 RMK AO1 /PK WND 07 000 T01560023  
METAR KEHA 290508Z AUTO 15/02 RMK AO1 /PK WND 07 000 T01500023  
METAR KEHA 290448Z AUTO 16/02 RMK AO1 /PK WND 07 000 T01560023  
 
GOODLAND (KGLD) 05/29/17 05:40 UTC  
RADAR VAD WINDS HEIGHT DIR/SPD(KT)  
22000 FT MSL...306/028  
20000 FT MSL...309/040  
19000 FT MSL...288/028  
18000 FT MSL...284/024  
17000 FT MSL...284/025  
16000 FT MSL...288/024  
15000 FT MSL...297/026  
14200 FT MSL...298/027  
14000 FT MSL...294/027  
13000 FT MSL...300/019  
12000 FT MSL...285/015  
11300 FT MSL...349/020  
11000 FT MSL...351/018  
10000 FT MSL...006/008  
9700 FT MSL...111/009  
9000 FT MSL...120/009  
8100 FT MSL...061/011  
8000 FT MSL...072/015  
7000 FT MSL...062/016  
6400 FT MSL...042/019  
6000 FT MSL...004/025  
5000 FT MSL...011/025  
4700 FT MSL...027/017  
4600 FT MSL...008/024  
4000 FT MSL...060/011  
4000 FT MSL...068/012  
 
DODGE CITY (KDDC) 05/29/17 05:35 UTC  
RADAR VAD WINDS HEIGHT DIR/SPD(KT)  
8800 FT MSL...299/008  
8000 FT MSL...328/019  
7000 FT MSL...321/013  
7000 FT MSL...321/018  
6000 FT MSL...307/015  
5300 FT MSL...280/009  
5000 FT MSL...299/013  
4000 FT MSL...185/016  
3600 FT MSL...184/017  
3500 FT MSL...213/012  
3000 FT MSL...195/014  
3000 FT MSL...195/014  
 
GOODLAND AVIATION DISCUSSION  
ISSUED AT 0534 UTC MONDAY, MAY 29, 2017  
   
AVIATION
 
(FOR THE 06Z TAFS THROUGH 06Z MONDAY NIGHT)  
ISSUED AT 1134 PM MDT SUN MAY 28 2017  
VFR CONDITIONS ARE EXPECTED THROUGH THE TAF PERIOD AT KGLD AND  
KMCK TERMINALS. WEST TO NORTHWEST WINDS WILL TEND TO REMAIN BELOW  
10KT THROUGH THE TAF PERIOD WITH HIGH PRESSURE PERSISTING NEAR  
THE REGION. THERE IS ENOUGH NW FLOW ALOFT THAT LIGHT SHOWERS NEAR  
THE TERMINALS TONIGHT OR WINDS DURING THE AFTERNOON MAY INCREASE  
TO THE 12KT RANGE WITH BRIEF GUSTS.  
 
DODGE CITY AVIATION DISCUSSION  
ISSUED AT 0511 UTC MONDAY, MAY 29, 2017  
   
AVIATION
 
(FOR THE 06Z TAFS THROUGH 06Z MONDAY NIGHT)  
ISSUED AT 1209 AM CDT MON MAY 29 2017  
VFR CONDITIONS WILL PREVAIL TODAY WITH MOSTLY CLEAR SKIES. WINDS  
WILL START OUT FROM A WESTERLY DIRECTION THIS MORNING SHIFTING TO  
THE NORTH BY THIS AFTERNOON. WINDS THEN SHIFT TO THE EAST TO  
NORTHEAST THIS EVENING. WIND SPEEDS SHOULD BE LESS THAN 10 KNOTS  
THROUGHOUT THE DAY.  
 
* * * * * TEXAS/OKLAHOMA * * * * *  
 
KGUY 290525Z 2906/3006 VRB06KT P6SM SKC  
FM291400 24010KT P6SM SKC  
FM300100 VRB06KT P6SM BKN060=  
METAR KGUY 290453Z AUTO 26009KT 10SM CLR 15/06 A3013 RMK AO2 SLP169  
T01500061  
METAR KGUY 290353Z AUTO 25007KT 10SM CLR 15/07 A3012 RMK AO2 SLP166  
T01500072  
METAR KGUY 290253Z AUTO 27004KT 10SM CLR 19/06 A3011 RMK AO2 SLP161  
T01940056 53001  
 
KDHT 290525Z 2906/3006 VRB06KT P6SM SKC  
FM291400 21010KT P6SM SKC  
FM300000 VRB06KT P6SM BKN060  
METAR KDHT 290453Z AUTO 14003KT 10SM CLR 14/04 A3020 RMK AO2 SLP185  
T01390039  
METAR KDHT 290353Z AUTO 10003KT 10SM CLR 17/03 A3019 RMK AO2 SLP179  
T01670033  
METAR KDHT 290253Z AUTO 09004KT 10SM CLR 18/03 A3018 RMK AO2 SLP175  
T01780033 53002  
 
AMARILLO (KAMA) 05/29/17 05:31 UTC  
RADAR VAD WINDS HEIGHT DIR/SPD(KT)  
16000 FT MSL...321/005  
15000 FT MSL...003/003  
14000 FT MSL...063/013  
13000 FT MSL...322/006  
12000 FT MSL...336/026  
11500 FT MSL...335/035  
11000 FT MSL...335/032  
10000 FT MSL...333/028  
9800 FT MSL...332/028  
9000 FT MSL...307/020  
8100 FT MSL...309/018  
8000 FT MSL...307/014  
7000 FT MSL...139/008  
6400 FT MSL...128/012  
6000 FT MSL...134/016  
5000 FT MSL...128/017  
4600 FT MSL...125/018  
4600 FT MSL...097/014  
4000 FT MSL...117/016  
4000 FT MSL...118/015  
 
AMARILLO AVIATION DISCUSSION  
ISSUED AT 0532 UTC MONDAY, MAY 29, 2017  
   
AVIATION
 
 
FOR THE 06Z TAFS:  
VFR CONDITIONS WILL PREVAIL AT THE TERMINALS THROUGHOUT THIS  
VALID TAF PERIOD.  
MOST NOTEWORTHY ITEMS FOR THIS TAF PERIOD INCLUDE THE INCREASE IN  
CLOUDS TOMORROW EVENING WHICH DECKS SHOULD STAY ABOVE 5K FEET.  
THERE IS A CHANCE FOR PRECIPITAION TOMORROW EVENING, BUT IT SHOULD  
BE DIURNALLY DRIVEN AND LIKELY END AROUND SUNSET. KDHT HAS THE  
BEST CHANCE TO SEE RAINFALL AND PERHAPS A THUNDERSTORM WITH GUSTY  
WINDS. THERE IS A EVEN SMALLER CHANCE KAMA AND KGUY COULD SEE  
THESE RAINFALL CHANCES. THAT BEING SAID, GUSTY WINDS AND PERHAPS  
LOWER CEILINGS ARE A SMALL POSSIBILITY AROUND AND AFTER 00Z. LEFT  
THESE OUT OF THE CURRENT TAF DUE TO LOW CONFIDENCE. SEE  
SUBSEQUENT TAFS FOR AND CHANGES. FOR PLANNING PURPOSES, KDHT MAY  
NEED A FROM GROUP IN SUBSEQUENT TAFS FOR THESE  
RAINFALL/THUNDERSTORM CHANCES.  
GUERRERO  
 
* * * * * NEW MEXICO * * * * *  
 
KFMN 290536Z 2906/3006 33005KT P6SM FEW110  
FM290800 07007KT P6SM SKC  
FM291900 29007KT P6SM FEW110  
FM300400 09008KT P6SM SCT110  
METAR KFMN 290453Z AUTO 29003KT 10SM CLR 13/M10 A3015 RMK AO2 SLP171  
T01331100  
METAR KFMN 290353Z 00000KT 10SM CLR 17/M11 A3015 RMK AO2 SLP164  
T01721106  
METAR KFMN 290253Z 29003KT 10SM CLR 19/M11 A3014 RMK AO2 SLP162  
T01941111 55000  
 
METAR KSKX 290535Z AUTO 12009KT 10SM CLR 12/M02 A3030 RMK AO1  
METAR KSKX 290515Z AUTO 12011KT 10SM CLR 12/M02 A3029 RMK AO1  
METAR KSKX 290455Z AUTO 12011KT 10SM CLR 12/M02 A3029 RMK AO1  
 
KLVS 290536Z 2906/3006 15009KT P6SM SCT090  
FM291700 20012G18KT P6SM SCT090  
FM292000 23014G20KT P6SM VCTS BKN080CB  
FM292300 18012KT P6SM VCSH SCT080  
FM300200 15008KT P6SM SCT025  
METAR KLVS 290453Z AUTO 14007KT 10SM CLR 08/M01 A3031 RMK AO2 SLP192  
T00831011  
METAR KLVS 290353Z AUTO 14007KT 10SM CLR 10/00 A3030 RMK AO2 SLP186  
T01000000  
METAR KLVS 290253Z AUTO 14010KT 10SM CLR 10/01 A3030 RMK AO2 SLP189  
60000 T01000011 51013  
 
METAR KRTN 290453Z AUTO 28005KT 10SM CLR 09/01 A3028 RMK AO2 SLP195  
T00940006  
METAR KRTN 290353Z AUTO 33004KT 10SM CLR 11/01 A3026 RMK AO2 SLP188  
T01060006  
METAR KRTN 290253Z AUTO 21005KT 10SM CLR 12/01 A3025 RMK AO2 SLP185  
T01220006 53006  
 
METAR KCAO 290455Z AUTO 20004KT 10SM CLR 12/03 A3023 RMK AO2 SLP194  
T01220028  
METAR KCAO 290355Z AUTO 11003KT 10SM CLR 13/02 A3022 RMK AO2 SLP190  
T01280022  
METAR KCAO 290255Z AUTO 10006KT 10SM CLR 13/03 A3021 RMK AO2 SLP188  
T01330028 53003  
 
ALBUQUERQUE (KABX) 05/29/17 05:30 UTC  
RADAR VAD WINDS HEIGHT DIR/SPD(KT)  
20000 FT MSL...266/013  
15000 FT MSL...265/017  
14000 FT MSL...150/029  
13000 FT MSL...142/034  
12100 FT MSL...224/012  
12000 FT MSL...148/025  
11000 FT MSL...157/020  
10300 FT MSL...208/012  
10000 FT MSL...162/017  
9000 FT MSL...198/016  
8700 FT MSL...169/016  
8000 FT MSL...151/021  
7000 FT MSL...160/022  
6900 FT MSL...160/022  
6900 FT MSL...188/015  
6200 FT MSL...172/015  
 
ALBUQUERQUE AVIATION DISCUSSION  
ISSUED AT 2330 UTC SUNDAY, MAY 28, 2017  
   
AVIATION
 
 
00Z TAF CYCLE  
A WEAK UPPER LEVEL SHORT-WAVE WILL CROSS CENTRAL NM THIS EVENING.  
THIS FEATURE WILL RESULT IN AN AREA/CLUSTER OF SCT SHOWERS/T-STORMS  
THAT WILL MOVE NORTHEASTWARD FROM THE SOUTHWEST MOUNTAINS INTO THE  
MID RGV AND POINTS EAST BTWN 29/01Z-29/05Z. MODELS SUGGESTING THIS  
CLUSTER OF SHOWERS/T-STORMS WILL STAY JUST SOUTH OF I-40 AND KABQ AS  
IT MOVES EWD INTO TORRANCE CO. GUSTY OUTFLOW WINDS THE MAIN IMPACT  
FROM THESE T-STORMS. WEAK ISOLD ACTIVITY EXPECTED ELSEWHERE UNTIL  
AROUND 05Z. LOW LEVEL MOISTURE WILL CONTINUE TO INCREASE OVERNIGHT  
AND MEMORIAL DAY MORNING WITH AN INCREASE IN SHOWER/T-STORM ACTIVITY  
ANTICIPATED DURING THE AFTERNOON AND EVENING.  
33  
 
* * * * * WINDS AND TEMPERATURES ALOFT FORECASTS * * * * *  
 
DATA BASED ON 290000Z  
VALID 290600Z FOR USE 0500-0900Z. TEMPS NEG ABV 24000  
FT 3000 6000 9000 12000 18000 24000 30000 34000 39000  
SLC 9900 0608+09 0705+02 3307-14 3410-27 351642 362451 363161  
BCE 9900+04 9900-13 3205-26 320843 340952 341159  
LND 0207+05 3412-01 3318-16 3323-29 333243 333452 344161  
RKS 0612 3107+02 3317-16 3221-28 342643 342852 342961  
GJT 0305+10 0207+02 3110-15 3110-27 331844 321452 311959  
FMN 3505+12 2914+04 2616-15 2715-27 291943 282153 282558  
ABQ 1911+11 2106+02 9900-14 2621-26 272642 272851 273057  
MBW 0305 3012-01 3024-17 3128-29 313243 323453 323261  
DEN 9900+07 9900+00 3021-16 3021-29 302244 302153 292360  
PUB 2008+08 2213+00 2821-16 3019-28 292143 281952 272460  
ALS 9900+02 2721-14 2820-27 282243 282152 272459  
TCC 1312 2306+09 2911+01 3009-14 2824-26 273242 263751 253858  
BFF 3422 3324+04 3130-02 3034-18 3035-30 314344 314553 314260  
GLD 3209 3115+06 3225-01 3028-16 2932-29 293343 293253 283660  
GCK 3008+14 3316+07 3521+00 3025-16 2925-28 282743 272952 263759  
GAG 3307+14 3411+05 3416+01 3119-15 2830-27 273943 264251 254557  
AMA 9900 3608+07 3520+02 3220-14 2828-26 273542 263951 254558  
---------------------------------------------------------------------  
 
DATA BASED ON 290000Z  
VALID 291200Z FOR USE 0900-1800Z. TEMPS NEG ABV 24000  
FT 3000 6000 9000 12000 18000 24000 30000 34000 39000  
SLC 9900 0807+09 1005+01 3606-14 3411-27 351842 352351 342861  
BCE 1505+03 9900-14 9900-26 331142 361551 351659  
LND 9900+04 3210-01 3220-16 3526-28 333544 334353 324761  
RKS 0814 3408+00 3315-16 3422-28 332743 333252 334161  
GJT 9900+10 9900+02 3009-15 3214-27 331943 341852 352360  
FMN 1705+11 9900+03 2824-15 3015-27 281743 282352 292559  
ABQ 1810+10 2510+03 2920-14 2618-26 262742 263552 274258  
MBW 3308 3316-02 3227-17 3232-29 323644 324053 314261  
DEN 9900+05 2512-01 3122-16 2921-28 302843 302852 312961  
PUB 9900+07 2307+00 2916-16 2922-28 292643 292752 293060  
ALS 2412+02 3019-15 3020-27 282343 272753 283060  
TCC 2007 2309+09 2809+02 3118-15 2826-27 263843 264652 274857  
BFF 3416 3218+03 3122-04 3136-18 3141-29 314745 305054 304960  
GLD 3511 2809+05 2719-02 3130-17 2938-29 293644 293453 293860  
GCK 2915+14 3112+06 3113-01 2928-17 2933-28 283244 283453 274260  
GAG 3105+14 0109+06 3612+00 3125-16 2931-27 274143 264952 265258  
AMA 9900 3606+08 3512+02 2916-16 2827-27 274242 264851 264857  
---------------------------------------------------------------------  
 
DATA BASED ON 290000Z  
VALID 300000Z FOR USE 1800-0500Z. TEMPS NEG ABV 24000  
FT 3000 6000 9000 12000 18000 24000 30000 34000 39000  
SLC 9900 9900+11 9900+04 9900-13 3305-25 321642 312351 313161  
BCE 9900+07 9900-13 2605-26 311041 300950 300760  
LND 9900+07 3307+01 3124-15 3328-27 322843 343053 343163  
RKS 0305 9900+03 2914-15 3225-26 332743 322853 323361  
GJT 0105+12 9900+04 2608-13 2911-26 321642 312551 313561  
FMN 2806+14 2805+06 2409-13 2608-26 251842 311151 331259  
ABQ 9900+13 9900+05 2619-13 2619-25 282541 273751 283560  
MBW 3210 3211+00 3228-16 3133-28 323844 333954 323961  
DEN 9900+08 9900+00 3024-15 2928-27 303644 303953 294160  
PUB 0705+10 9900+01 2723-15 3028-26 312743 303152 283660  
ALS 9900+05 2914-14 2919-26 301842 301751 302060  
TCC 2008 2009+12 2010+03 3315-15 3022-25 293441 284051 254658  
BFF 3215 3117+06 3119-03 3240-17 3146-29 324945 324854 314459  
GLD 9900 3305+05 3223-01 3134-15 3040-28 294844 285153 274959  
GCK 1207+13 9900+06 2823+00 3032-15 3027-28 294043 284351 265159  
GAG 1607+17 1607+08 2307+00 3125-15 3036-27 284441 266748 238557  
AMA 1511 1609+10 9900+02 3121-15 3026-26 284141 265648 236258  
---------------------------------------------------------------------  
 
THIS PRODUCT IS UPDATED AUTOMATICALLY AT APPROXIMATELY 10, 30 AND 50  
MINUTES AFTER EACH HOUR, 24 HOURS PER DAY, 7 DAYS PER WEEK. IT MAY  
BECOME UNAVAILABLE AT TIMES DUE TO SYSTEM OUTAGES WITHOUT PRIOR NOTICE.  
USERS ARE ADVISED TO CHECK THE TIME AT THE TOP OF THE PRODUCT TO ENSURE  
THAT IT IS CURRENT. FURTHERMORE, CONTENT AND FORMAT OF THE PRODUCT ARE  
SUBJECT TO CHANGE WITHOUT PRIOR NOTICE.  
 
COMMENTS AND SUGGESTIONS ARE WELCOME AND SHOULD BE DIRECTED TO ONE OF  
THE ADDRESSES OR PHONE NUMBERS SHOWN AT THE BOTTOM OF THIS PAGE. IN  
ORDER TO EXPEDITE A RESPONSE TO COMMENTS OR SUGGESTIONS, BE SURE TO  
MENTION YOUR INTEREST IN THE HOT-AIR BALLOON FORECAST.  
 
CLICK HERE TO GO TO PREVIOUS BULLETINS.

The Nexlab CO Page Main Text Page